Time;durP1;ratioP1;P1;durP2;ratioP2;P2;SDS_P1;SDS_P2;PMS_P1;PMS_P2;Temp;Humidity;BMP_temperature;BMP_pressure;BME280_temperature;BME280_humidity;BME280_pressure;Samples;Min_cycle;Max_cycle;Signal;HPM_P1;HPM_P2
2022/07/28 00:01:02;;;;;;;25.83;12.48;;;;;;;;;;5109701;28;20032;-58
2022/07/28 00:03:28;;;;;;;15.32;13.73;;;28.60;60.20;;;;;;5112778;28;20128;-58
2022/07/28 00:05:54;;;;;;;15.77;12.83;;;26.20;67.20;;;;;;5112421;28;20479;-56
2022/07/28 00:08:19;;;;;;;17.97;13.47;;;26.00;67.10;;;;;;5098224;28;20024;-58
2022/07/28 00:10:45;;;;;;;16.17;13.87;;;26.00;67.30;;;;;;5106967;28;20031;-58
2022/07/28 00:13:11;;;;;;;19.27;12.57;;;26.00;67.50;;;;;;5105722;28;20034;-59
2022/07/28 00:15:37;;;;;;;14.23;12.57;;;25.90;67.70;;;;;;5091657;28;20024;-59
2022/07/28 00:18:02;;;;;;;14.70;12.43;;;25.90;68.00;;;;;;5073993;28;20020;-55
2022/07/28 00:20:29;;;;;;;12.67;10.97;;;25.90;68.00;;;;;;5105097;28;20027;-57
2022/07/28 00:22:55;;;;;;;;;;;25.90;68.00;;;;;;5072250;28;20044;-59
2022/07/28 00:25:22;;;;;;;11.93;10.00;;;25.80;67.70;;;;;;5071830;28;20395;-58
2022/07/28 00:27:47;;;;;;;12.17;10.90;;;25.80;68.40;;;;;;5094932;28;20032;-56
2022/07/28 00:30:13;;;;;;;12.60;9.57;;;25.70;68.80;;;;;;5101464;28;20024;-58
2022/07/28 00:32:39;;;;;;;10.13;9.07;;;25.70;68.90;;;;;;5091850;28;20056;-57
2022/07/28 00:35:05;;;;;;;8.90;8.00;;;25.70;69.20;;;;;;5091917;28;20024;-58
2022/07/28 00:37:31;;;;;;;10.37;9.37;;;25.70;69.30;;;;;;5087520;28;20429;-58
2022/07/28 00:39:56;;;;;;;10.43;8.67;;;25.70;69.50;;;;;;5104543;28;20077;-58
2022/07/28 00:42:22;;;;;;;11.67;9.90;;;25.70;69.80;;;;;;5094779;28;20016;-56
2022/07/28 00:44:48;;;;;;;11.37;10.27;;;25.60;69.70;;;;;;5094000;28;20028;-58
2022/07/28 00:47:14;;;;;;;12.63;10.47;;;25.60;69.60;;;;;;5093590;28;20055;-56
2022/07/28 00:49:40;;;;;;;12.57;10.63;;;25.70;69.80;;;;;;5110190;28;20034;-59
2022/07/28 00:52:08;;;;;;;13.27;10.53;;;25.60;70.00;;;;;;5102614;28;20199;-59
2022/07/28 01:10:07;;;;;;;15.68;13.02;;;;;;;;;;5106387;27;20420;-54
2022/07/28 01:12:33;;;;;;;14.43;13.02;;;;;;;;;;5090299;28;20032;-55
2022/07/28 01:15:05;;;;;;;15.32;12.88;;;;;;;;;;5107830;28;20438;-54
2022/07/28 01:17:53;;;;;;;17.20;13.48;;;;;;;;;;5108505;28;20023;-54
2022/07/28 01:20:23;;;;;;;15.80;12.90;;;;;;;;;;5096103;28;20120;-54
2022/07/28 01:23:05;;;;;;;16.50;13.55;;;;;;;;;;5130250;22;20047;-59
2022/07/28 01:25:43;;;;;;;16.73;15.02;;;;;;;;;;5093933;28;20036;-59
2022/07/28 01:28:09;;;;;;;15.35;13.75;;;;;;;;;;5073631;28;20505;-59
2022/07/28 01:30:43;;;;;;;18.83;14.70;;;;;;;;;;5102025;28;20497;-58
2022/07/28 01:33:17;;;;;;;16.90;14.23;;;;;;;;;;5108151;28;20261;-58
2022/07/28 01:35:51;;;;;;;20.30;13.25;;;;;;;;;;5106065;28;20043;-59
2022/07/28 01:38:18;;;;;;;14.25;12.75;;;;;;;;;;5100703;28;20032;-56
2022/07/28 01:40:45;;;;;;;13.10;11.82;;;;;;;;;;5102632;28;20024;-59
2022/07/28 01:43:16;;;;;;;15.23;12.27;;;;;;;;;;5104855;28;20019;-58
2022/07/28 01:45:43;;;;;;;14.35;11.65;;;;;;;;;;5107486;28;20051;-56
2022/07/28 01:48:09;;;;;;;;;;;;;;;;;;5108719;28;20036;-57
2022/07/28 01:50:36;;;;;;;17.77;13.38;;;;;;;;;;5103729;28;19934;-57
2022/07/28 01:53:02;;;;;;;14.75;13.05;;;;;;;;;;5108334;28;20024;-58
2022/07/28 01:55:29;;;;;;;13.70;12.18;;;;;;;;;;5095994;28;20468;-58
2022/07/28 01:57:56;;;;;;;13.77;12.20;;;;;;;;;;5091380;28;20497;-57
2022/07/28 02:00:23;;;;;;;13.63;11.27;;;;;;;;;;5103350;28;20035;-57
2022/07/28 02:02:50;;;;;;;12.82;11.05;;;;;;;;;;5093161;28;20060;-58
2022/07/28 02:05:16;;;;;;;;;;;;;;;;;;5088323;28;20054;-58
2022/07/28 02:07:44;;;;;;;15.00;13.50;;;;;;;;;;5105907;28;19903;-58
2022/07/28 02:10:11;;;;;;;15.93;11.27;;;;;;;;;;5087855;28;20056;-57
2022/07/28 02:12:38;;;;;;;11.90;10.68;;;;;;;;;;5093076;28;20024;-59
2022/07/28 02:15:07;;;;;;;14.90;10.63;;;;;;;;;;5093863;28;20063;-59
2022/07/28 02:17:34;;;;;;;12.88;9.90;;;;;;;;;;5083425;28;20486;-57
2022/07/28 02:20:00;;;;;;;13.65;11.15;;;;;;;;;;5062295;28;20020;-57
2022/07/28 02:22:27;;;;;;;12.40;10.50;;;;;;;;;;5093996;28;20505;-58
2022/07/28 02:24:53;;;;;;;12.75;10.55;;;;;;;;;;5094072;28;20028;-58
2022/07/28 02:27:19;;;;;;;10.40;9.40;;;;;;;;;;5092609;28;20028;-57
2022/07/28 02:29:48;;;;;;;11.37;10.17;;;;;;;;;;5078571;28;20096;-58
2022/07/28 02:32:18;;;;;;;12.55;11.35;;;;;;;;;;5086551;28;20039;-58
2022/07/28 02:34:44;;;;;;;11.13;10.00;;;;;;;;;;5087418;28;20020;-58
2022/07/28 02:37:11;;;;;;;11.57;10.38;;;;;;;;;;5094201;28;20196;-58
2022/07/28 02:39:56;;;;;;;10.90;9.80;;;;;;;;;;5076930;28;20052;-58
2022/07/28 02:42:26;;;;;;;11.73;9.95;;;;;;;;;;5093580;28;20020;-58
2022/07/28 02:44:56;;;;;;;14.18;8.75;;;;;;;;;;5093751;28;20052;-57
2022/07/28 02:47:24;;;;;;;11.13;9.38;;;;;;;;;;5093022;28;20047;-54
2022/07/28 02:49:51;;;;;;;10.50;9.18;;;;;;;;;;5091988;28;20020;-58
2022/07/28 02:52:17;;;;;;;;;;;;;;;;;;5079288;28;20107;-58
2022/07/28 02:54:43;;;;;;;8.63;7.80;;;;;;;;;;5081339;28;20481;-57
2022/07/28 02:57:12;;;;;;;8.98;8.00;;;;;;;;;;5093114;28;20551;-58
2022/07/28 02:59:39;;;;;;;9.55;7.93;;;;;;;;;;5091411;28;20024;-57
2022/07/28 03:02:06;;;;;;;8.80;7.95;;;;;;;;;;5086311;28;20027;-57
2022/07/28 03:07:16;;;;;;;8.25;7.50;;;;;;;;;;5093272;28;19997;-59
2022/07/28 03:09:44;;;;;;;9.98;7.85;;;;;;;;;;5082005;28;20031;-59
2022/07/28 03:12:10;;;;;;;10.13;7.32;;;;;;;;;;5087848;28;20563;-58
2022/07/28 03:14:37;;;;;;;12.32;7.13;;;;;;;;;;5093179;28;20121;-57
2022/07/28 03:17:03;;;;;;;9.73;6.97;;;;;;;;;;5086817;28;20024;-59
2022/07/28 03:19:29;;;;;;;8.02;7.10;;;;;;;;;;5062345;28;20036;-57
2022/07/28 03:21:55;;;;;;;7.93;7.23;;;;;;;;;;5071886;28;20035;-59
2022/07/28 03:24:23;;;;;;;8.97;7.13;;;;;;;;;;5072885;28;20289;-58
2022/07/28 03:27:15;;;;;;;10.50;7.93;;;;;;;;;;5072903;28;20053;-58
2022/07/28 03:29:42;;;;;;;9.95;7.70;;;;;;;;;;5067820;28;20102;-58
2022/07/28 03:32:09;;;;;;;10.95;7.75;;;;;;;;;;5072614;28;20024;-57
2022/07/28 03:34:35;;;;;;;7.70;6.90;;;;;;;;;;5072338;28;20460;-58
2022/07/28 03:37:04;;;;;;;9.75;6.90;;;;;;;;;;5081442;28;20393;-59
2022/07/28 03:39:32;;;;;;;7.65;6.80;;;;;;;;;;5071971;28;20106;-56
2022/07/28 03:41:59;;;;;;;8.00;6.82;;;;;;;;;;5072470;28;20024;-58
2022/07/28 03:44:25;;;;;;;7.38;6.68;;;;;;;;;;5072574;28;20035;-55
2022/07/28 03:46:51;;;;;;;10.82;7.45;;;;;;;;;;5073849;28;20031;-58
2022/07/28 03:49:18;;;;;;;8.27;7.17;;;;;;;;;;5080595;28;20044;-58
2022/07/28 03:51:44;;;;;;;7.30;6.57;;;;;;;;;;5084279;28;20294;-57
2022/07/28 03:54:10;;;;;;;11.83;7.23;;;;;;;;;;5068303;28;20279;-59
2022/07/28 03:56:36;;;;;;;7.20;6.25;;;;;;;;;;5052303;28;20025;-59
2022/07/28 03:59:02;;;;;;;12.33;6.90;;;;;;;;;;5052021;28;20039;-58
2022/07/28 04:01:28;;;;;;;8.00;5.77;;;;;;;;;;5052114;28;20247;-59
2022/07/28 04:03:54;;;;;;;8.70;6.65;;;;;;;;;;5052259;28;20669;-59
2022/07/28 04:06:20;;;;;;;9.13;6.57;;;;;;;;;;5052422;28;20025;-59
2022/07/28 04:08:46;;;;;;;7.27;5.80;;;;;;;;;;5052042;28;20764;-58
2022/07/28 04:11:12;;;;;;;7.80;5.87;;;;;;;;;;5052166;28;20510;-58
2022/07/28 04:13:38;;;;;;;6.23;5.67;;;;;;;;;;5052030;28;20352;-58
2022/07/28 04:16:05;;;;;;;6.63;5.93;;;;;;;;;;5051954;28;20256;-58
2022/07/28 04:18:31;;;;;;;5.63;5.13;;;;;;;;;;5051693;28;20825;-57
2022/07/28 04:20:57;;;;;;;5.72;5.15;;;;;;;;;;5051954;28;20032;-59
2022/07/28 04:23:24;;;;;;;8.25;5.90;;;;;;;;;;5051817;28;20499;-59
2022/07/28 04:25:50;;;;;;;5.75;5.25;;;;;;;;;;5051926;28;20021;-57
2022/07/28 04:28:16;;;;;;;5.87;5.27;;;;;;;;;;5051646;28;20032;-58
2022/07/28 04:30:42;;;;;;;10.35;4.97;;;;;;;;;;5051740;28;20268;-56
2022/07/28 04:33:08;;;;;;;6.32;5.25;;;;;;;;;;5051436;28;20060;-59
2022/07/28 04:35:35;;;;;;;5.90;5.18;;;;;;;;;;5034201;28;20398;-58
2022/07/28 04:38:01;;;;;;;5.30;4.70;;;;;;;;;;5051481;28;20075;-57
2022/07/28 04:40:27;;;;;;;8.83;5.87;;;;;;;;;;5033802;28;20025;-57
2022/07/28 04:42:54;;;;;;;4.63;4.22;;;;;;;;;;5051523;28;20510;-59
2022/07/28 04:45:20;;;;;;;6.00;5.40;;;;;;;;;;5051630;28;20032;-59
2022/07/28 04:47:47;;;;;;;6.60;4.90;;;;;;;;;;5051563;28;20029;-59
2022/07/28 04:50:14;;;;;;;8.07;4.78;;;;;;;;;;5051365;28;20032;-59
2022/07/28 04:52:41;;;;;;;7.30;4.45;;;;;;;;;;5051437;28;20025;-57
2022/07/28 04:55:07;;;;;;;6.60;5.03;;;;;;;;;;5033707;28;20025;-59
2022/07/28 04:57:33;;;;;;;8.40;4.97;;;;;;;;;;5033479;28;20112;-58
2022/07/28 05:00:00;;;;;;;5.10;4.60;;;;;;;;;;5051259;28;20060;-59
2022/07/28 05:02:26;;;;;;;6.75;5.00;;;;;;;;;;5051588;28;20025;-58
2022/07/28 05:04:52;;;;;;;6.53;4.32;;;;;;;;;;5051608;28;20021;-59
2022/07/28 05:07:18;;;;;;;5.32;4.82;;;;;;;;;;5051500;28;20029;-59
2022/07/28 05:09:45;;;;;;;5.50;4.43;;;;;;;;;;5033393;28;20112;-59
2022/07/28 05:12:11;;;;;;;6.80;4.30;;;;;;;;;;5051226;28;20021;-58
2022/07/28 05:14:37;;;;;;;5.57;4.85;;;;;;;;;;5051380;28;20060;-59
2022/07/28 05:17:03;;;;;;;4.95;4.28;;;;;;;;;;5051295;28;20451;-59
2022/07/28 05:19:29;;;;;;;7.37;4.60;;;;;;;;;;5051166;28;20390;-59
2022/07/28 05:21:55;;;;;;;3.93;3.60;;;25.40;70.80;;;;;;5051044;28;20598;-59
2022/07/28 05:24:20;;;;;;;14.53;4.20;;;25.30;72.60;;;;;;5051344;28;20502;-59
2022/07/28 05:26:46;;;;;;;10.10;3.87;;;25.30;73.20;;;;;;5051133;28;20024;-59
2022/07/28 05:29:12;;;;;;;6.50;3.93;;;25.40;72.90;;;;;;5051073;28;20025;-59
2022/07/28 05:31:38;;;;;;;5.47;4.30;;;25.40;72.70;;;;;;5051091;28;20029;-59
2022/07/28 05:34:04;;;;;;;8.33;3.80;;;25.40;72.30;;;;;;5051204;28;20102;-58
2022/07/28 05:36:30;;;;;;;;;;;25.50;72.90;;;;;;5051728;28;20029;-59
2022/07/28 05:38:56;;;;;;;5.45;4.05;;;;;;;;;;5050981;28;19915;-59
2022/07/28 05:41:22;;;;;;;7.93;3.85;;;;;;;;;;5051253;28;20422;-58
2022/07/28 05:43:48;;;;;;;7.50;3.92;;;;;;;;;;5050983;28;20096;-58
2022/07/28 05:46:14;;;;;;;6.15;4.57;;;;;;;;;;5054441;28;20052;-58
2022/07/28 05:48:41;;;;;;;7.57;4.50;;;;;;;;;;5054642;28;20423;-58
2022/07/28 05:51:07;;;;;;;4.07;3.60;;;;;;;;;;5054738;28;20252;-58
2022/07/28 05:53:33;;;;;;;5.07;4.05;;;;;;;;;;5054665;28;20025;-59
2022/07/28 05:55:59;;;;;;;4.53;3.80;;;;;;;;;;5054658;28;20096;-57
2022/07/28 05:58:25;;;;;;;6.97;3.67;;;;;;;;;;5054386;28;20112;-57
2022/07/28 06:00:51;;;;;;;5.60;4.13;;;;;;;;;;5054627;28;20056;-56
2022/07/28 06:03:18;;;;;;;6.10;3.38;;;;;;;;;;5054484;28;20434;-58
2022/07/28 06:05:43;;;;;;;;;;;;;;;;;;5037002;28;20025;-56
2022/07/28 06:08:10;;;;;;;7.30;3.78;;;;;;;;;;5036385;28;20007;-59
2022/07/28 06:13:21;;;;;;;6.45;3.20;;;;;;;;;;5054605;28;20094;-54
2022/07/28 06:15:47;;;;;;;6.75;3.72;;;;;;;;;;5054261;28;20025;-59
2022/07/28 06:18:14;;;;;;;7.50;3.63;;;;;;;;;;5053969;28;20021;-57
2022/07/28 06:20:40;;;;;;;5.57;3.90;;;;;;;;;;5054114;28;20150;-59
2022/07/28 06:23:06;;;;;;;4.90;3.80;;;;;;;;;;5053928;28;20119;-58
2022/07/28 06:25:32;;;;;;;6.17;4.10;;;;;;;;;;5036243;28;20339;-58
2022/07/28 06:27:59;;;;;;;4.22;3.58;;;;;;;;;;5053845;28;20025;-58
2022/07/28 06:30:26;;;;;;;5.32;3.45;;;;;;;;;;5036142;28;20078;-59
2022/07/28 06:32:52;;;;;;;3.75;3.42;;;;;;;;;;5053945;28;20045;-58
2022/07/28 06:35:19;;;;;;;6.43;4.07;;;;;;;;;;5053906;28;20127;-58
2022/07/28 06:37:45;;;;;;;6.22;4.43;;;;;;;;;;5053824;28;20032;-58
2022/07/28 06:40:11;;;;;;;;;;;;;;;;;;5054049;28;20025;-57
2022/07/28 06:42:38;;;;;;;5.53;4.25;;;;;;;;;;5053787;28;19911;-58
2022/07/28 06:45:04;;;;;;;;;;;;;;;;;;5054184;28;20479;-58
2022/07/28 06:47:30;;;;;;;6.38;4.35;;;;;;;;;;5053647;28;19911;-58
2022/07/28 06:49:56;;;;;;;7.60;4.93;;;;;;;;;;5053380;28;20112;-56
2022/07/28 06:52:22;;;;;;;5.22;3.83;;;;;;;;;;5053486;28;20047;-58
2022/07/28 06:54:51;;;;;;;7.13;4.63;;;;;;;;;;5035685;28;20034;-59
2022/07/28 06:57:18;;;;;;;7.28;5.07;;;;;;;;;;5053443;28;20067;-58
2022/07/28 06:59:45;;;;;;;5.68;5.07;;;;;;;;;;5053199;28;20025;-57
2022/07/28 07:02:11;;;;;;;;;;;;;;;;;;5053936;28;20017;-57
2022/07/28 07:04:37;;;;;;;6.13;4.93;;;;;;;;;;5035447;28;20392;-58
2022/07/28 07:07:03;;;;;;;6.65;4.45;;;;;;;;;;5053726;28;20025;-58
2022/07/28 07:09:29;;;;;;;5.78;4.28;;;;;;;;;;5053200;28;20403;-58
2022/07/28 07:11:55;;;;;;;7.38;4.60;;;;;;;;;;5053243;28;20032;-58
2022/07/28 07:14:21;;;;;;;5.63;3.88;;;;;;;;;;5053170;28;20502;-58
2022/07/28 07:16:48;;;;;;;7.70;4.78;;;;;;;;;;5053149;28;20059;-58
2022/07/28 07:19:14;;;;;;;8.52;5.07;;;;;;;;;;5052772;28;20078;-59
2022/07/28 07:21:40;;;;;;;5.47;4.07;;;;;;;;;;5052906;28;20017;-59
2022/07/28 07:24:06;;;;;;;8.52;4.82;;;;;;;;;;5110018;23;20521;-57
2022/07/28 07:26:32;;;;;;;7.20;4.47;;;;;;;;;;5072911;28;20047;-58
2022/07/28 07:28:58;;;;;;;12.95;4.72;;;;;;;;;;5072618;28;20052;-55
2022/07/28 07:31:24;;;;;;;8.10;4.47;;;;;;;;;;5072961;28;20441;-57
2022/07/28 07:33:50;;;;;;;6.60;4.40;;;;;;;;;;5072594;28;20029;-58
2022/07/28 07:36:16;;;;;;;8.20;4.45;;;;;;;;;;5054803;28;20070;-57
2022/07/28 07:38:44;;;;;;;8.55;4.18;;;;;;;;;;5072443;28;20564;-58
2022/07/28 07:41:11;;;;;;;7.10;4.50;;;;;;;;;;5072609;28;20021;-57
2022/07/28 07:43:37;;;;;;;;;;;;;;;;;;5072880;28;20019;-57
2022/07/28 07:46:03;;;;;;;8.48;5.00;;;;;;;;;;5072518;28;19905;-61
2022/07/28 07:48:29;;;;;;;16.13;5.43;;;;;;;;;;5072249;28;20036;-61
2022/07/28 07:50:55;;;;;;;8.40;4.53;;;;;;;;;;5072312;28;20134;-61
2022/07/28 07:53:21;;;;;;;5.47;4.78;;;;;;;;;;5054488;28;20028;-61
2022/07/28 07:55:47;;;;;;;;;;;;;;;;;;5054923;28;20159;-61
2022/07/28 07:58:14;;;;;;;7.85;5.10;;;;;;;;;;5072478;28;20003;-61
2022/07/28 08:00:40;;;;;;;6.22;5.57;;;;;;;;;;5072197;28;20035;-53
2022/07/28 08:03:06;;;;;;;6.93;5.07;;;;;;;;;;5054079;28;20112;-55
2022/07/28 08:05:32;;;;;;;14.00;5.25;;;;;;;;;;5072340;28;20078;-52
2022/07/28 08:07:58;;;;;;;6.18;4.97;;;;;;;;;;5071431;28;20509;-55
2022/07/28 08:10:24;;;;;;;7.30;4.82;;;;;;;;;;5072017;28;20548;-56
2022/07/28 08:12:50;;;;;;;7.15;4.90;;;;;;;;;;5071953;28;20070;-56
2022/07/28 08:15:16;;;;;;;10.02;5.63;;;;;;;;;;5071943;28;20024;-55
2022/07/28 08:17:42;;;;;;;6.22;4.53;;;;;;;;;;5071832;28;20021;-55
2022/07/28 08:20:09;;;;;;;7.70;4.40;;;;;;;;;;5071727;28;20024;-53
2022/07/28 08:22:45;;;;;;;8.73;4.68;;;;;;;;;;5071848;28;20036;-53
2022/07/28 08:25:11;;;;;;;12.73;5.00;;;;;;;;;;5071917;28;20478;-55
2022/07/28 08:27:37;;;;;;;10.13;4.95;;;;;;;;;;5072102;28;20417;-53
2022/07/28 08:30:04;;;;;;;9.20;4.60;;;;;;;;;;5071494;28;20493;-56
2022/07/28 08:32:30;;;;;;;8.88;4.95;;;;;;;;;;5071971;28;20498;-55
2022/07/28 08:34:56;;;;;;;5.40;4.60;;;;;;;;;;5071987;28;20032;-56
2022/07/28 08:37:22;;;;;;;8.60;5.05;;;;;;;;;;5071766;28;20017;-55
2022/07/28 08:39:48;;;;;;;5.72;4.80;;;;;;;;;;5053418;28;20032;-56
2022/07/28 08:42:14;;;;;;;10.25;5.28;;;;;;;;;;5071493;28;20028;-55
2022/07/28 08:45:02;;;;;;;6.35;4.82;;;;;;;;;;5071566;28;20029;-55
2022/07/28 08:47:31;;;;;;;8.00;4.63;;;;;;;;;;5071831;28;20044;-55
2022/07/28 08:49:58;;;;;;;10.15;4.75;;;;;;;;;;5071767;28;20025;-53
2022/07/28 08:52:27;;;;;;;10.48;4.60;;;;;;;;;;5053495;28;20024;-55
2022/07/28 08:54:55;;;;;;;8.63;4.55;;;;;;;;;;5071527;28;20100;-56
2022/07/28 08:57:27;;;;;;;5.65;4.90;;;;;;;;;;5053332;28;20027;-53
2022/07/28 08:59:53;;;;;;;6.72;5.32;;;;;;;;;;5071532;28;20051;-52
2022/07/28 09:02:20;;;;;;;7.38;5.15;;;;;;;;;;5053442;28;20029;-56
2022/07/28 09:04:46;;;;;;;4.85;4.07;;;;;;;;;;5071440;28;20107;-54
2022/07/28 09:07:13;;;;;;;7.72;4.57;;;;;;;;;;5071510;28;20056;-52
2022/07/28 09:09:39;;;;;;;6.95;4.47;;;;;;;;;;5071134;28;20035;-52
2022/07/28 09:12:05;;;;;;;9.30;4.78;;;;;;;;;;5071348;28;20027;-52
2022/07/28 09:14:32;;;;;;;8.27;4.45;;;;;;;;;;5071379;28;20039;-52
2022/07/28 09:17:01;;;;;;;8.02;5.05;;;;;;;;;;5071346;28;20477;-51
2022/07/28 09:19:28;;;;;;;9.18;4.93;;;;;;;;;;5071708;28;20032;-52
2022/07/28 09:21:54;;;;;;;;;;;;;;;;;;5075701;28;20031;-55
2022/07/28 09:24:37;;;;;;;6.25;4.68;;;;;;;;;;5057116;28;19916;-54
2022/07/28 09:27:06;;;;;;;6.35;4.78;;;;;;;;;;5075163;28;20066;-52
2022/07/28 09:29:32;;;;;;;6.85;3.97;;;;;;;;;;5075048;28;20443;-55
2022/07/28 09:31:59;;;;;;;4.93;4.43;;;;;;;;;;5075059;28;20028;-52
2022/07/28 09:34:25;;;;;;;7.85;4.47;;;;;;;;;;5075073;28;20028;-52
2022/07/28 09:36:51;;;;;;;9.82;4.85;;;;;;;;;;5074970;28;20033;-52
2022/07/28 09:39:33;;;;;;;11.85;4.55;;;;;;;;;;5074594;28;20025;-53
2022/07/28 09:41:59;;;;;;;6.43;4.45;;;;;;;;;;5074819;28;20046;-51
2022/07/28 09:44:26;;;;;;;5.20;4.60;;;;;;;;;;5057046;28;20107;-53
2022/07/28 09:46:52;;;;;;;7.65;4.50;;;;;;;;;;5074895;28;20028;-53
2022/07/28 09:49:18;;;;;;;5.85;4.75;;;;;;;;;;5074517;28;20028;-52
2022/07/28 09:52:00;;;;;;;8.30;4.47;;;;;;;;;;5074704;28;20082;-53
2022/07/28 09:54:26;;;;;;;7.43;4.35;;;;;;;;;;5074716;28;20026;-52
2022/07/28 09:56:53;;;;;;;6.75;3.90;;;;;;;;;;5074699;28;20063;-52
2022/07/28 09:59:20;;;;;;;;;;;;;;;;;;5074750;28;20021;-55
2022/07/28 10:02:05;;;;;;;7.15;4.18;;;;;;;;;;5074493;28;19931;-51
2022/07/28 10:04:35;;;;;;;5.03;3.78;;;;;;;;;;5056546;28;20475;-50
2022/07/28 10:07:09;;;;;;;7.25;3.88;;;;;;;;;;5074382;28;20452;-54
2022/07/28 10:09:36;;;;;;;5.65;3.70;;;;;;;;;;5074158;28;20056;-52
2022/07/28 10:12:17;;;;;;;7.78;4.63;;;;;;;;;;5074146;28;20033;-52
2022/07/28 10:14:45;;;;;;;5.50;3.78;;;;;;;;;;5074315;28;20029;-53
2022/07/28 10:17:11;;;;;;;4.25;3.40;;;;;;;;;;5073325;28;20028;-53
2022/07/28 10:19:39;;;;;;;;;;;;;;;;;;5069096;28;20033;-52
2022/07/28 10:22:05;;;;;;;7.07;4.70;;;;;;;;;;5062801;28;20314;-52
2022/07/28 10:24:34;;;;;;;8.88;4.43;;;;;;;;;;5059503;28;20048;-52
2022/07/28 10:27:02;;;;;;;5.05;4.03;;;;;;;;;;5073913;28;20036;-52
2022/07/28 10:29:30;;;;;;;7.15;4.07;;;;;;;;;;5073419;28;20028;-52
2022/07/28 10:32:04;;;;;;;7.65;4.10;;;;;;;;;;5073415;28;20029;-52
2022/07/28 10:34:32;;;;;;;5.38;4.07;;;;;;;;;;5074030;28;20025;-53
2022/07/28 10:37:00;;;;;;;5.05;4.45;;;;;;;;;;5073696;28;20020;-55
2022/07/28 10:39:28;;;;;;;6.38;3.75;;;;;;;;;;5072856;28;20112;-51
2022/07/28 10:41:55;;;;;;;6.13;3.60;;;;;;;;;;5073331;28;20095;-54
2022/07/28 10:44:22;;;;;;;7.88;4.20;;;;;;;;;;5074041;28;20505;-53
2022/07/28 10:46:49;;;;;;;7.15;3.78;;;;;;;;;;5073723;28;20036;-52
2022/07/28 10:49:15;;;;;;;4.25;3.78;;;;;;;;;;5073304;28;20046;-55
2022/07/28 10:51:48;;;;;;;5.03;4.25;;;;;;;;;;5073413;28;20020;-52
2022/07/28 10:54:27;;;;;;;9.20;4.63;;;;;;;;;;5073213;28;20085;-55
2022/07/28 10:56:54;;;;;;;8.82;4.07;;;;;;;;;;5073081;28;20033;-51
2022/07/28 10:59:39;;;;;;;6.20;3.83;;;;;;;;;;5072735;28;20368;-54
2022/07/28 11:02:05;;;;;;;6.88;4.00;;;;;;;;;;5072609;28;20025;-55
2022/07/28 11:04:40;;;;;;;7.10;3.92;;;;;;;;;;5054642;28;20040;-52
2022/07/28 11:07:10;;;;;;;7.88;3.97;;;;;;;;;;5072418;28;20031;-55
2022/07/28 11:09:36;;;;;;;9.25;4.28;;;;;;;;;;5072516;28;20028;-52
2022/07/28 11:12:02;;;;;;;7.35;4.32;;;;;;;;;;5055408;28;20032;-52
2022/07/28 11:14:30;;;;;;;5.07;4.22;;;;;;;;;;5072663;28;20565;-54
2022/07/28 11:17:00;;;;;;;12.45;4.75;;;;;;;;;;5072710;28;20029;-52
2022/07/28 11:19:30;;;;;;;7.22;3.80;;;;;;;;;;5072628;28;20032;-54
2022/07/28 11:22:17;;;;;;;9.93;4.15;;;;;;;;;;5072798;28;20029;-52
2022/07/28 11:24:43;;;;;;;;;;;;;;;;;;5072977;28;20047;-53
2022/07/28 11:27:09;;;;;;;6.72;4.28;;;;;;;;;;5072539;28;20378;-53
2022/07/28 11:29:45;;;;;;;8.30;4.35;;;;;;;;;;5072138;28;20047;-53
2022/07/28 11:32:11;;;;;;;5.55;4.45;;;;;;;;;;5072555;28;20028;-52
2022/07/28 11:35:07;;;;;;;4.93;3.72;;;;;;;;;;5072796;28;20104;-52
2022/07/28 11:37:53;;;;;;;7.57;3.97;;;;;;;;;;5045421;28;20048;-52
2022/07/28 11:40:29;;;;;;;7.05;4.00;;;;;;;;;;5070047;28;20025;-52
2022/07/28 11:43:15;;;;;;;6.88;3.55;;;;;;;;;;5071790;28;20402;-52
2022/07/28 11:45:41;;;;;;;6.80;4.30;;;;;;;;;;5046227;28;20025;-54
2022/07/28 11:48:14;;;;;;;5.88;4.18;;;;;;;;;;5071532;28;20579;-56
2022/07/28 11:50:40;;;;;;;7.18;3.80;;;;;;;;;;5072450;28;20502;-52
2022/07/28 11:53:06;;;;;;;4.80;3.85;;;;;;;;;;5071752;28;20031;-52
2022/07/28 11:55:33;;;;;;;6.50;4.35;;;;;;;;;;5072438;28;20024;-52
2022/07/28 11:58:01;;;;;;;5.03;4.07;;;;;;;;;;5071686;28;20078;-54
2022/07/28 12:00:28;;;;;;;5.15;4.38;;;;;;;;;;5071692;28;20394;-52
2022/07/28 12:02:55;;;;;;;7.53;4.28;;;;;;;;;;5071639;28;20028;-54
2022/07/28 12:05:22;;;;;;;7.78;4.10;;;;;;;;;;5071972;28;20449;-52
2022/07/28 12:07:49;;;;;;;6.95;3.85;;;;;;;;;;5071966;28;20487;-53
2022/07/28 12:10:25;;;;;;;6.03;4.72;;;;;;;;;;5071878;28;20483;-56
2022/07/28 12:12:52;;;;;;;4.60;3.97;;;;;;;;;;5071590;28;20398;-55
2022/07/28 12:15:21;;;;;;;4.65;4.03;;;;;;;;;;5071589;28;20367;-53
2022/07/28 12:17:48;;;;;;;6.20;4.10;;;;;;;;;;5053828;28;20060;-53
2022/07/28 12:20:16;;;;;;;8.23;4.60;;;;;;;;;;5071894;28;20107;-52
2022/07/28 12:23:00;;;;;;;4.63;3.95;;;;;;;;;;5071512;28;20043;-54
2022/07/28 12:25:27;;;;;;;7.57;4.55;;;;;;;;;;5071501;28;20021;-55
2022/07/28 12:27:53;;;;;;;;;;;;;;;;;;5071818;28;20073;-53
2022/07/28 12:30:26;;;;;;;6.80;4.22;;;;;;;;;;5071436;28;19915;-53
2022/07/28 12:32:52;;;;;;;5.35;4.10;;;;;;;;;;5071478;28;20033;-54
2022/07/28 12:35:19;;;;;;;7.38;4.80;;;;;;;;;;5071606;28;20038;-54
2022/07/28 12:37:47;;;;;;;;;;;;;;;;;;5054087;28;20421;-53
2022/07/28 12:40:13;;;;;;;7.78;4.50;;;;;;;;;;5071359;28;19987;-52
2022/07/28 12:42:39;;;;;;;6.13;4.80;;;;;;;;;;5070899;28;20035;-54
2022/07/28 12:45:07;;;;;;;4.97;4.53;;;;;;;;;;5071646;28;20021;-56
2022/07/28 12:47:33;;;;;;;8.27;4.30;;;;;;;;;;5071635;28;20067;-52
2022/07/28 12:50:16;;;;;;;7.80;4.72;;;;;;;;;;5071867;28;20364;-51
2022/07/28 12:52:44;;;;;;;7.85;5.05;;;;;;;;;;5070933;28;20043;-55
2022/07/28 12:55:24;;;;;;;8.98;4.68;;;;;;;;;;5071269;28;20029;-53
2022/07/28 12:57:51;;;;;;;7.10;5.13;;;;;;;;;;5071203;28;20557;-54
2022/07/28 13:00:19;;;;;;;7.15;4.38;;;;;;;;;;5053168;28;20100;-52
2022/07/28 13:02:45;;;;;;;5.60;4.03;;;;;;;;;;5071104;28;20031;-52
2022/07/28 13:05:25;;;;;;;7.32;4.53;;;;;;;;;;5071124;28;20167;-53
2022/07/28 13:07:57;;;;;;;6.53;4.88;;;;;;;;;;5051465;28;20067;-53
2022/07/28 13:10:26;;;;;;;6.60;4.65;;;;;;;;;;5051397;28;20029;-55
2022/07/28 13:13:05;;;;;;;9.80;4.80;;;;;;;;;;5060934;28;20306;-56
2022/07/28 13:15:31;;;;;;;8.23;5.00;;;;;;;;;;5071483;28;20380;-53
2022/07/28 13:17:58;;;;;;;9.57;4.82;;;;;;;;;;5070442;28;20074;-53
2022/07/28 13:20:24;;;;;;;7.68;4.50;;;;;;;;;;5071044;28;20367;-54
2022/07/28 13:22:51;;;;;;;8.45;5.22;;;;;;;;;;5109451;22;20087;-53
2022/07/28 13:25:17;;;;;;;8.52;4.95;;;;;;;;;;5057139;28;20037;-51
2022/07/28 13:27:44;;;;;;;9.05;4.97;;;;;;;;;;5058494;28;20471;-52
2022/07/28 13:30:10;;;;;;;8.55;4.60;;;;;;;;;;5051777;28;20033;-52
2022/07/28 13:32:36;;;;;;;5.72;4.43;;;;;;;;;;5051029;28;20025;-51
2022/07/28 13:35:03;;;;;;;5.03;4.53;;;;;;;;;;5051034;28;20082;-52
2022/07/28 13:37:29;;;;;;;6.18;4.15;;;;;;;;;;5051194;28;20025;-54
2022/07/28 13:39:55;;;;;;;5.45;4.15;;;;;;;;;;5050358;28;20037;-52
2022/07/28 13:42:22;;;;;;;6.47;4.82;;;;;;;;;;5050649;28;20021;-55
2022/07/28 13:44:48;;;;;;;6.43;4.38;;;;;;;;;;5051036;28;20397;-53
2022/07/28 13:47:14;;;;;;;5.13;4.35;;;;;;;;;;5032989;28;20041;-51
2022/07/28 13:49:40;;;;;;;;;;;;;;;;;;5050640;28;20403;-54
2022/07/28 13:52:07;;;;;;;5.05;4.50;;;;;;;;;;5050604;28;19909;-52
2022/07/28 13:54:33;;;;;;;9.25;4.43;;;;;;;;;;5050682;28;20104;-55
2022/07/28 13:56:59;;;;;;;;;;;;;;;;;;5051300;28;20052;-53
2022/07/28 13:59:26;;;;;;;6.13;4.55;;;;;;;;;;5050526;28;19959;-51
2022/07/28 14:01:54;;;;;;;5.70;4.63;;;;;;;;;;5051075;28;20025;-50
2022/07/28 14:04:20;;;;;;;11.25;5.40;;;;;;;;;;5050824;28;20064;-51
2022/07/28 14:06:46;;;;;;;6.80;4.88;;;;;;;;;;5053472;28;20402;-51
2022/07/28 14:09:12;;;;;;;5.80;5.20;;;;;;;;;;5053466;28;20087;-53
2022/07/28 14:11:40;;;;;;;;;;;;;;;;;;5054496;28;20029;-51
2022/07/28 14:14:06;;;;;;;6.63;4.65;;;;;;;;;;5053627;28;19919;-51
2022/07/28 14:16:32;;;;;;;7.63;3.97;;;;;;;;;;5053552;28;20090;-54
2022/07/28 14:18:58;;;;;;;10.25;5.07;;;;;;;;;;5053803;28;20072;-54
2022/07/28 14:21:24;;;;;;;8.70;4.68;;;;;;;;;;5054164;28;20025;-55
2022/07/28 14:23:50;;;;;;;7.13;4.72;;;;;;;;;;5053806;28;20025;-53
2022/07/28 14:26:16;;;;;;;5.20;4.40;;;;;;;;;;5054000;28;20154;-53
2022/07/28 14:28:42;;;;;;;10.38;4.72;;;;;;;;;;5035006;28;20029;-51
2022/07/28 14:31:08;;;;;;;7.05;4.05;;;;;;;;;;5054066;28;20033;-53
2022/07/28 14:33:34;;;;;;;5.38;4.85;;;;;;;;;;5053782;28;20107;-54
2022/07/28 14:36:00;;;;;;;9.77;4.78;;;;;;;;;;5053780;28;20037;-61
2022/07/28 14:38:27;;;;;;;6.13;4.25;;;;;;;;;;5053120;28;20074;-51
2022/07/28 14:40:53;;;;;;;6.65;4.05;;;;;;;;;;5052882;28;20035;-54
2022/07/28 14:43:19;;;;;;;;;;;;;;;;;;5053447;28;20044;-53
2022/07/28 14:45:45;;;;;;;6.57;4.68;;;;;;;;;;5053078;28;19912;-50
2022/07/28 14:48:11;;;;;;;;;;;;;;;;;;5053846;28;20103;-51
2022/07/28 14:50:37;;;;;;;4.88;4.40;;;;;;;;;;5052729;28;20302;-55
2022/07/28 14:53:04;;;;;;;6.32;4.30;;;;;;;;;;5053543;28;20498;-52
2022/07/28 14:55:30;;;;;;;5.40;4.07;;;;;;;;;;5053259;28;20376;-52
2022/07/28 14:57:56;;;;;;;6.93;4.13;;;;;;;;;;5053016;28;20059;-54